Historyczne dane pomiarowe

Dodano dane terminowe – wersja testowa.

Dane z okresu 1951-2019

Wersja bazy: 1.34 [2019-03-16, lista zmian], aktualizacja planowana na 2019-04-15

Dane meteo z obszaru Polski uzyskane na podstawie danych udostępnionych przez Instytut Meteorologii i Gospodarki Wodnej – Państwowy Instytut Badawczy.

 

Wybierz Datę:    

       

TemperaturaWilgotnośćWiatrCiśnienieOpadyŚniegCzas trwania zjawisk
 Stacja t tx tn tng RH VA  wxwx mslp ppp RRR   cm mm wxwxwxwxwxwxwx
1990-12-13 -0.3 1.0 -2.4- 92.0- 8.0 0.7---- 1.6------------
1990-12-14 0.6 1.4 0.0- 92.5- 8.0 2.7---- 0.8------------
1990-12-15 0.5 1.6 -0.1- 95.0- 8.0 3.0---- 1.4------------
1990-12-16 -0.2 1.2 -0.8- 94.0- 8.0 2.3---- 0.5------------
1990-12-17 -0.4 0.0 -1.0- 93.5- 8.0 3.0---- 2.2------------
1990-12-18 -0.9 0.0 -1.8- 93.5- 8.0 4.7---- 1.2------------
1990-12-19 -0.6 0.5 -0.8- 95.0- 7.3 1.0---- 1.5-- 1---------
1990-12-20 -1.5 0.2 -2.5- 88.8- 6.7 4.7---- 0.8-- 2---------
1990-12-21 -0.2 1.0 -2.1- 90.3- 8.0 5.3---- 0.5-- 3---------
1990-12-22 -0.2 1.5 -1.5- 95.0- 7.3 2.0---- 0.0-- 3---------
1990-12-23 -4.7 -1.0 -5.6- 98.0- 8.0 4.3---- 0.0-- 3---------
1990-12-24 -7.1 -1.0-10.9- 88.5- 2.7 1.3---- 0.0-- 3---------
1990-12-25 -6.2 0.2-10.9- 87.3- 0.0 1.0---- 0.0-- 3---------
1990-12-26 -2.5 4.0 -8.6- 82.3- 6.3 3.3---- 1.1-- 3---------
1990-12-27 5.1 6.9 2.6- 86.5- 5.7 2.7---- 0.5------------
1990-12-28 2.6 5.0 0.2- 86.8- 0.0 2.3---- 0.3------------
1990-12-29 0.1 4.0 -4.0- 85.8- 5.3 7.3---- 2.0------------
1990-12-30 5.5 6.9 3.8- 88.5- 8.0 4.7---- 0.0------------
1990-12-31 4.1 6.9 2.0- 90.5- 2.0 2.7---- 4.0------------
1991-01-01 2.8 4.8 1.1- 97.5- 8.0 4.0---- 0.6------------
1991-01-02 2.7 4.5 0.5- 83.8- 4.7 1.7---- 2.1------------
1991-01-03 6.7 9.4 4.2- 94.5- 8.0 2.7---- 3.2------------
1991-01-04 7.4 12.0 2.7- 85.5- 6.3 3.0---- 2.7------------
1991-01-05 3.8 8.3 1.1- 93.5- 5.3 3.0---- 0.6------------
1991-01-06 3.9 6.4 -0.9- 77.3- 6.3 5.7---- 0.0------------
1991-01-07 4.7 6.2 -0.3- 81.0- 5.7 1.3---- 3.8------------
1991-01-08 4.7 7.9 3.1- 88.5- 3.3 1.0---- 0.0------------
1991-01-09 4.2 9.1 0.0- 84.8- 6.3 2.7---- 0.0------------
1991-01-10 7.2 10.9 3.1- 76.3- 4.0 3.3---- 0.0------------
1991-01-11 9.6 11.9 8.3- 84.0- 7.7 3.7---- 2.1------------
572.1 ms

 

Źródłem pochodzenia danych jest Instytut Meteorologii i Gospodarki Wodnej – Państwowy Instytut Badawczy. Dane Instytutu Meteorologii i Gospodarki Wodnej – Państwowego Instytutu Badawczego zostały przetworzone.

Dane źródłowe można odnaleźć na stronie https://dane.imgw.pl